createdAt,value
2023-04-03T00:00:25.191Z,100855.34
2023-04-03T00:02:55.480Z,100853.91
2023-04-03T00:05:26.295Z,100862.84
2023-04-03T00:07:56.711Z,100861.72
2023-04-03T00:10:27.142Z,100868.03
2023-04-03T00:12:57.567Z,100873.91
2023-04-03T00:15:28.686Z,100870.34
2023-04-03T00:17:58.601Z,100882.19
2023-04-03T00:20:29.431Z,100886.09
2023-04-03T00:22:59.720Z,100889.34
2023-04-03T00:25:30.210Z,100897.66
2023-04-03T00:28:00.897Z,100899.59
2023-04-03T00:30:31.261Z,100902.34
2023-04-03T00:33:01.695Z,100900.91
2023-04-03T00:35:32.776Z,100911.47
2023-04-03T00:38:03.622Z,100912.63
2023-04-03T00:40:40.434Z,100917.50
2023-04-03T00:43:20.113Z,100922.53
2023-04-03T00:45:54.208Z,100930.84
2023-04-03T00:48:29.437Z,100931.19
2023-04-03T00:51:01.991Z,100938.50
2023-04-03T00:53:40.737Z,100944.66
2023-04-03T00:56:14.278Z,100947.09
2023-04-03T00:58:52.318Z,100950.19
2023-04-03T01:01:27.354Z,100960.13
2023-04-03T01:03:58.059Z,100956.53
2023-04-03T01:06:35.329Z,100966.16
2023-04-03T01:09:10.301Z,100966.16
2023-04-03T01:11:40.558Z,100976.88
2023-04-03T01:14:10.816Z,100979.13
2023-04-03T01:16:41.046Z,100981.59
2023-04-03T01:19:19.124Z,100983.22
2023-04-03T01:22:04.561Z,100991.81
2023-04-03T01:24:38.675Z,100994.28
2023-04-03T01:27:14.110Z,101004.22
2023-04-03T01:29:48.336Z,100999.81
2023-04-03T01:32:18.617Z,101004.03
2023-04-03T01:34:49.121Z,101006.47
2023-04-03T01:37:19.378Z,101006.16
2023-04-03T01:39:49.577Z,101012.31
2023-04-03T01:42:19.818Z,101006.47
2023-04-03T01:44:50.945Z,101012.81
2023-04-03T01:47:21.320Z,101021.59
2023-04-03T01:49:51.669Z,101018.34
2023-04-03T01:52:21.898Z,101015.59
2023-04-03T01:54:52.157Z,101018.34
2023-04-03T01:57:22.627Z,101029.09
2023-04-03T01:59:52.916Z,101022.41
2023-04-03T02:02:23.699Z,101025.69
2023-04-03T02:04:55.521Z,101021.94
2023-04-03T02:07:25.987Z,101021.94
2023-04-03T02:09:56.233Z,101020.47
2023-04-03T02:12:26.489Z,101029.59
2023-04-03T02:14:56.727Z,101026.00
2023-04-03T02:17:27.007Z,101027.94
2023-04-03T02:19:58.656Z,101027.13
2023-04-03T02:22:28.961Z,101029.59
2023-04-03T02:24:59.163Z,101025.41
2023-04-03T02:27:29.836Z,101024.56
2023-04-03T02:30:00.031Z,101027.34
2023-04-03T02:32:30.379Z,101020.16
2023-04-03T02:35:00.926Z,101019.38
2023-04-03T02:37:31.664Z,101023.25
2023-04-03T02:40:02.844Z,101023.25
2023-04-03T02:42:33.385Z,101022.41
2023-04-03T02:45:06.375Z,101028.78
2023-04-03T02:47:37.029Z,101027.13
2023-04-03T02:50:07.738Z,101023.06
2023-04-03T02:52:38.320Z,101023.06
2023-04-03T02:55:09.130Z,101023.06
2023-04-03T02:57:39.461Z,101025.84
2023-04-03T03:00:10.362Z,101020.31
2023-04-03T03:02:40.524Z,101032.50
2023-04-03T03:05:12.098Z,101022.25
2023-04-03T03:07:42.848Z,101025.00
2023-04-03T03:10:13.234Z,101018.84
2023-04-03T03:12:44.830Z,101022.41
2023-04-03T03:15:15.433Z,101022.41
2023-04-03T03:17:45.868Z,101022.75
2023-04-03T03:20:18.601Z,101033.47
2023-04-03T03:22:48.995Z,101026.53
2023-04-03T03:25:19.334Z,101025.69
2023-04-03T03:27:49.844Z,101021.50
2023-04-03T03:30:20.194Z,101020.34
2023-04-03T03:32:51.294Z,101023.13
2023-04-03T03:35:21.545Z,101027.53
2023-04-03T03:37:52.965Z,101017.25
2023-04-03T03:40:23.404Z,101020.84
2023-04-03T03:42:54.007Z,101024.09
2023-04-03T03:45:24.422Z,101020.53
2023-04-03T03:47:54.665Z,101019.03
2023-04-03T03:50:24.938Z,101015.47
2023-04-03T03:52:55.403Z,101018.75
2023-04-03T03:55:25.740Z,101012.72
2023-04-03T03:57:58.474Z,101014.66
2023-04-03T04:00:31.586Z,101003.59
2023-04-03T04:03:02.226Z,100998.53
2023-04-03T04:05:35.290Z,101000.50
2023-04-03T04:08:06.517Z,100999.53
2023-04-03T04:10:39.311Z,100996.44
2023-04-03T04:13:10.834Z,100997.56
2023-04-03T04:15:41.342Z,100987.81
2023-04-03T04:18:11.681Z,100987.00
2023-04-03T04:20:44.433Z,100978.38
2023-04-03T04:23:14.638Z,100975.44
2023-04-03T04:25:45.019Z,100964.88
2023-04-03T04:28:15.788Z,100969.59
2023-04-03T04:30:47.178Z,100967.31
2023-04-03T04:33:19.756Z,100966.66
2023-04-03T04:35:52.076Z,100959.81
2023-04-03T04:38:24.567Z,100946.00
2023-04-03T04:40:56.793Z,100949.75
2023-04-03T04:43:28.034Z,100940.63
2023-04-03T04:46:14.913Z,100938.34
2023-04-03T04:48:53.166Z,100930.38
2023-04-03T04:51:25.541Z,100919.31
2023-04-03T04:53:56.123Z,100931.19
2023-04-03T04:56:28.754Z,100918.66
2023-04-03T04:59:00.329Z,100909.22
2023-04-03T05:01:31.218Z,100907.41
2023-04-03T05:04:08.494Z,100904.63
2023-04-03T05:06:39.139Z,100895.06
2023-04-03T05:09:14.124Z,100880.09
2023-04-03T05:11:46.600Z,100882.03
2023-04-03T05:14:19.026Z,100880.41
2023-04-03T05:16:51.582Z,100876.81
2023-04-03T05:19:24.787Z,100869.34
2023-04-03T05:21:55.312Z,100863.13
2023-04-03T05:24:25.955Z,100862.00
2023-04-03T05:26:56.386Z,100856.94
2023-04-03T05:29:27.072Z,100856.78
2023-04-03T05:31:58.838Z,100852.88
2023-04-03T05:34:29.629Z,100853.03
2023-04-03T05:37:00.428Z,100837.06
2023-04-03T05:39:32.016Z,100828.91
2023-04-03T05:42:04.023Z,100826.63
2023-04-03T05:44:34.277Z,100819.00
2023-04-03T05:47:05.546Z,100815.56
2023-04-03T05:49:36.564Z,100806.47
2023-04-03T05:52:06.985Z,100796.19
2023-04-03T05:54:37.227Z,100787.56
2023-04-03T05:57:22.027Z,100787.09
2023-04-03T05:59:52.526Z,100780.41
2023-04-03T06:02:26.967Z,100773.75
2023-04-03T06:04:57.597Z,100773.88
2023-04-03T06:07:31.747Z,100764.59
2023-04-03T06:10:01.967Z,100752.75
2023-04-03T06:12:33.267Z,100751.09
2023-04-03T06:15:03.486Z,100746.72
2023-04-03T06:17:43.988Z,100734.16
2023-04-03T06:20:15.557Z,100734.97
2023-04-03T06:22:46.210Z,100731.88
2023-04-03T06:25:16.446Z,100725.66
2023-04-03T06:27:46.799Z,100710.34
2023-04-03T06:30:17.506Z,100702.88
2023-04-03T06:32:48.000Z,100701.38
2023-04-03T06:35:18.384Z,100700.56
2023-04-03T06:37:48.983Z,100682.66
2023-04-03T06:40:26.640Z,100679.22
2023-04-03T06:42:57.357Z,100678.56
2023-04-03T06:45:28.895Z,100666.81
2023-04-03T06:47:59.312Z,100656.53
2023-04-03T06:50:29.879Z,100651.34
2023-04-03T06:53:00.198Z,100644.66
2023-04-03T06:55:31.000Z,100641.56
2023-04-03T06:58:01.343Z,100633.59
2023-04-03T07:00:31.776Z,100629.22
2023-04-03T07:03:02.050Z,100622.66
2023-04-03T07:05:32.477Z,100620.19
2023-04-03T07:08:03.090Z,100603.16
2023-04-03T07:10:34.116Z,100599.34
2023-04-03T07:13:05.368Z,100594.13
2023-04-03T07:15:35.776Z,100587.81
2023-04-03T07:18:06.224Z,100578.69
2023-04-03T07:20:36.762Z,100578.47
2023-04-03T07:23:07.400Z,100563.97
2023-04-03T07:25:38.148Z,100565.09
2023-04-03T07:28:08.689Z,100560.38
2023-04-03T07:30:45.693Z,100548.97
2023-04-03T07:33:18.087Z,100540.97
2023-04-03T07:35:49.276Z,100542.97
2023-04-03T07:38:19.891Z,100540.19
2023-04-03T07:40:51.876Z,100533.97
2023-04-03T07:43:23.611Z,100524.53
2023-04-03T07:45:54.439Z,100526.63
2023-04-03T07:48:29.145Z,100510.44
2023-04-03T07:51:04.560Z,100513.56
2023-04-03T07:53:35.730Z,100517.28
2023-04-03T07:56:06.211Z,100514.84
2023-04-03T07:58:36.642Z,100509.75
2023-04-03T08:06:02.771Z,100500.56
2023-04-03T08:08:51.463Z,100495.66
2023-04-03T08:11:22.343Z,100498.88
2023-04-03T08:13:53.643Z,100493.47
2023-04-03T08:16:29.149Z,100486.88
2023-04-03T08:18:59.778Z,100486.88
2023-04-03T08:21:30.340Z,100489.75
2023-04-03T08:24:00.667Z,100482.38
2023-04-03T08:26:30.984Z,100479.63
2023-04-03T08:29:01.292Z,100478.09
2023-04-03T08:31:31.664Z,100468.53
2023-04-03T08:34:01.929Z,100467.84
2023-04-03T08:36:34.324Z,100458.38
2023-04-03T08:39:05.242Z,100465.09
2023-04-03T08:41:47.007Z,100463.09
2023-04-03T08:44:49.736Z,100460.34
2023-04-03T08:47:28.566Z,100455.50
2023-04-03T08:50:05.433Z,100453.53
2023-04-03T08:53:01.205Z,100458.59
2023-04-03T08:55:44.195Z,100452.28
2023-04-03T08:58:25.006Z,100455.16
2023-04-03T09:01:03.498Z,100452.38
2023-04-03T09:03:36.655Z,100446.38
2023-04-03T09:06:17.143Z,100455.84
2023-04-03T09:09:11.680Z,100452.75
2023-04-03T09:12:03.613Z,100444.84
2023-04-03T09:14:42.660Z,100443.28
2023-04-03T09:17:34.563Z,100442.44
2023-04-03T09:20:07.732Z,100425.81
2023-04-03T09:22:49.759Z,100426.50
2023-04-03T09:25:36.535Z,100421.31
2023-04-03T09:28:13.166Z,100420.97
2023-04-03T09:30:43.377Z,100419.03
2023-04-03T09:33:15.057Z,100421.44
2023-04-03T09:35:53.820Z,100416.34
2023-04-03T09:38:25.795Z,100413.59
2023-04-03T09:41:20.539Z,100408.84
2023-04-03T09:43:59.284Z,100414.38
2023-04-03T09:46:36.632Z,100406.06
2023-04-03T09:49:10.175Z,100406.91
2023-04-03T09:51:41.162Z,100405.06
2023-04-03T09:54:42.975Z,100399.06
2023-04-03T09:57:17.146Z,100396.16
2023-04-03T10:00:05.119Z,100405.38
2023-04-03T10:02:46.286Z,100399.38
2023-04-03T10:05:34.293Z,100403.31
2023-04-03T10:08:38.013Z,100402.50
2023-04-03T10:11:20.627Z,100403.31
2023-04-03T10:13:56.378Z,100403.66
2023-04-03T10:16:36.048Z,100416.72
2023-04-03T10:19:40.357Z,100419.59
2023-04-03T10:22:20.488Z,100422.69
2023-04-03T10:25:04.416Z,100421.22
2023-04-03T10:27:57.456Z,100426.75
2023-04-03T10:30:30.694Z,100440.16
2023-04-03T10:33:26.799Z,100440.94
2023-04-03T10:36:15.806Z,100438.63
2023-04-03T10:38:49.741Z,100447.41
2023-04-03T10:41:43.022Z,100452.84
2023-04-03T10:44:50.350Z,100456.78
2023-04-03T10:47:39.686Z,100457.44
2023-04-03T10:50:31.349Z,100453.06
2023-04-03T10:53:11.838Z,100455.03
2023-04-03T10:55:53.426Z,100456.66
2023-04-03T10:58:45.530Z,100459.75
2023-04-03T11:01:25.177Z,100459.75
2023-04-03T11:04:02.007Z,100460.91
2023-04-03T11:06:51.019Z,100472.81
2023-04-03T11:09:50.407Z,100473.59
2023-04-03T11:12:32.889Z,100476.84
2023-04-03T11:15:05.412Z,100479.63
2023-04-03T11:17:47.689Z,100478.47
2023-04-03T11:20:21.214Z,100484.00
2023-04-03T11:22:58.094Z,100483.22
2023-04-03T11:25:29.896Z,100487.47
2023-04-03T11:28:01.779Z,100484.69
2023-04-03T11:30:38.042Z,100496.13
2023-04-03T11:33:32.165Z,100503.63
2023-04-03T11:36:35.745Z,100506.75
2023-04-03T11:39:26.446Z,100499.13
2023-04-03T11:42:06.745Z,100500.63
2023-04-03T11:44:43.032Z,100511.69
2023-04-03T11:47:17.328Z,100510.06
2023-04-03T11:50:01.649Z,100521.16
2023-04-03T11:52:44.738Z,100516.78
2023-04-03T11:55:24.487Z,100517.25
2023-04-03T11:58:06.729Z,100518.38
2023-04-03T12:00:55.051Z,100516.41
2023-04-03T12:03:45.561Z,100513.19
2023-04-03T12:06:20.048Z,100518.75
2023-04-03T12:08:57.755Z,100511.91
2023-04-03T12:11:34.250Z,100517.81
2023-04-03T12:14:04.862Z,100527.72
2023-04-03T12:16:49.438Z,100525.25
2023-04-03T12:19:42.949Z,100530.78
2023-04-03T12:22:20.234Z,100526.41
2023-04-03T12:24:55.853Z,100530.31
2023-04-03T12:27:42.065Z,100530.31
2023-04-03T12:30:31.416Z,100538.63
2023-04-03T12:33:27.540Z,100538.63
2023-04-03T12:36:16.124Z,100539.00
2023-04-03T12:39:09.793Z,100542.13
2023-04-03T12:41:57.982Z,100550.91
2023-04-03T12:44:57.488Z,100536.56
2023-04-03T12:47:36.427Z,100542.13
2023-04-03T12:50:19.863Z,100546.03
2023-04-03T12:53:16.910Z,100550.75
2023-04-03T12:55:47.268Z,100551.56
2023-04-03T12:58:37.291Z,100567.03
2023-04-03T13:01:18.437Z,100571.75
2023-04-03T13:03:51.777Z,100571.44
2023-04-03T13:06:26.227Z,100580.88
2023-04-03T13:09:04.319Z,100583.66
2023-04-03T13:11:40.179Z,100582.03
2023-04-03T13:14:24.885Z,100590.66
2023-04-03T13:17:10.325Z,100591.50
2023-04-03T13:19:40.685Z,100599.81
2023-04-03T13:22:31.989Z,100607.75
2023-04-03T13:25:07.616Z,100617.22
2023-04-03T13:27:38.393Z,100619.97
2023-04-03T13:30:10.490Z,100629.13
2023-04-03T13:32:40.919Z,100629.13
2023-04-03T13:35:33.909Z,100633.84
2023-04-03T13:38:26.386Z,100638.56
2023-04-03T13:41:06.633Z,100635.81
2023-04-03T13:45:40.638Z,100648.16
2023-04-03T13:48:24.621Z,100671.16
2023-04-03T13:51:10.943Z,100670.88
2023-04-03T13:53:52.985Z,100684.50
2023-04-03T13:56:34.536Z,100672.34
2023-04-03T13:59:07.808Z,100684.78
2023-04-03T14:01:59.193Z,100681.22
2023-04-03T14:04:31.199Z,100690.44
2023-04-03T14:07:01.970Z,100691.81
2023-04-03T14:09:33.263Z,100698.31
2023-04-03T14:12:11.328Z,100694.22
2023-04-03T14:14:49.620Z,100708.56
2023-04-03T14:17:25.751Z,100720.09
2023-04-03T14:19:58.173Z,100718.84
2023-04-03T14:22:32.104Z,100724.38
2023-04-03T14:25:02.807Z,100717.69
2023-04-03T14:27:44.520Z,100726.44
2023-04-03T14:30:25.510Z,100732.69
2023-04-03T14:32:56.904Z,100732.50
2023-04-03T14:35:28.412Z,100741.44
2023-04-03T14:37:59.074Z,100743.88
2023-04-03T14:40:31.309Z,100751.84
2023-04-03T14:43:01.743Z,100749.38
2023-04-03T14:45:32.343Z,100760.63
2023-04-03T14:48:03.206Z,100761.56
2023-04-03T14:50:33.682Z,100764.16
2023-04-03T14:53:03.996Z,100761.41
2023-04-03T14:55:35.380Z,100763.09
2023-04-03T14:58:05.735Z,100761.09
2023-04-03T15:00:36.140Z,100763.28
2023-04-03T15:03:07.383Z,100783.13
2023-04-03T15:05:39.666Z,100771.56
2023-04-03T15:08:25.040Z,100775.84
2023-04-03T15:10:56.357Z,100775.19
2023-04-03T15:13:27.719Z,100788.91
2023-04-03T15:15:58.442Z,100785.47
2023-04-03T15:18:31.559Z,100790.88
2023-04-03T15:21:02.042Z,100790.53
2023-04-03T15:23:33.325Z,100792.16
2023-04-03T15:26:03.385Z,100794.56
2023-04-03T15:28:42.795Z,100799.41
2023-04-03T15:31:13.163Z,100801.50
2023-04-03T15:33:43.844Z,100807.84
2023-04-03T15:36:29.171Z,100815.84
2023-04-03T15:39:04.124Z,100821.38
2023-04-03T15:41:34.446Z,100816.81
2023-04-03T15:44:04.786Z,100817.59
2023-04-03T15:46:36.684Z,100822.00
2023-04-03T15:49:06.980Z,100831.78
2023-04-03T15:51:37.318Z,100839.28
2023-04-03T15:54:08.485Z,100833.38
2023-04-03T15:56:38.763Z,100834.22
2023-04-03T15:59:09.098Z,100833.13
2023-04-03T16:01:41.133Z,100838.66
2023-04-03T16:04:13.004Z,100836.91
2023-04-03T16:06:44.475Z,100834.44
2023-04-03T16:09:15.280Z,100837.22
2023-04-03T16:11:46.834Z,100841.13
2023-04-03T16:14:17.204Z,100843.22
2023-04-03T16:16:47.824Z,100840.66
2023-04-03T16:19:18.333Z,100836.75
2023-04-03T16:21:49.189Z,100835.94
2023-04-03T16:24:19.652Z,100832.69
2023-04-03T16:26:49.960Z,100835.78
2023-04-03T16:29:20.209Z,100848.50
2023-04-03T16:31:50.827Z,100849.16
2023-04-03T16:34:21.357Z,100845.56
2023-04-03T16:36:52.355Z,100849.16
2023-04-03T16:39:24.138Z,100844.75
2023-04-03T16:41:54.475Z,100838.09
2023-04-03T16:44:25.026Z,100837.59
2023-04-03T16:46:55.515Z,100829.28
2023-04-03T16:49:25.896Z,100830.91
2023-04-03T16:51:56.290Z,100834.16
2023-04-03T16:54:26.580Z,100834.66
2023-04-03T16:56:57.137Z,100830.56
2023-04-03T16:59:28.057Z,100820.19
2023-04-03T17:01:58.494Z,100824.25
2023-04-03T17:04:29.634Z,100826.19
2023-04-03T17:07:00.564Z,100813.50
2023-04-03T17:09:30.899Z,100825.38
2023-04-03T17:12:00.972Z,100814.31
2023-04-03T17:14:31.043Z,100813.50
2023-04-03T17:17:01.248Z,100813.16
2023-04-03T17:19:32.192Z,100810.25
2023-04-03T17:22:03.215Z,100807.16
2023-04-03T17:24:33.498Z,100801.47
2023-04-03T17:27:03.764Z,100795.28
2023-04-03T17:29:34.369Z,100786.13
2023-04-03T17:32:04.804Z,100771.31
2023-04-03T17:34:36.026Z,100772.47
2023-04-03T17:37:07.102Z,100772.81
2023-04-03T17:39:37.464Z,100772.81
2023-04-03T17:42:09.506Z,100770.06
2023-04-03T17:44:39.889Z,100766.94
2023-04-03T17:47:10.330Z,100768.13
2023-04-03T17:49:40.533Z,100770.41
2023-04-03T17:52:10.822Z,100766.47
2023-04-03T17:54:41.145Z,100766.13
2023-04-03T17:57:11.900Z,100760.47
2023-04-03T17:59:42.269Z,100759.31
2023-04-03T18:02:12.571Z,100755.41
2023-04-03T18:04:43.018Z,100760.13
2023-04-03T18:07:14.441Z,100744.34
2023-04-03T18:09:44.500Z,100757.03
2023-04-03T18:12:14.772Z,100745.00
2023-04-03T18:14:45.234Z,100746.63
2023-04-03T18:17:15.985Z,100735.88
2023-04-03T18:19:46.246Z,100739.47
2023-04-03T18:22:19.815Z,100725.13
2023-04-03T18:24:51.293Z,100725.63
2023-04-03T18:27:24.873Z,100728.72
2023-04-03T18:30:00.662Z,100717.50
2023-04-03T18:32:31.323Z,100721.88
2023-04-03T18:35:03.450Z,100711.16
2023-04-03T18:37:34.336Z,100716.69
2023-04-03T18:40:04.653Z,100716.22
2023-04-03T18:42:35.050Z,100717.03
2023-04-03T18:45:08.283Z,100705.16
2023-04-03T18:47:39.420Z,100707.09
2023-04-03T18:50:10.874Z,100700.41
2023-04-03T18:52:41.261Z,100703.19
2023-04-03T18:55:13.674Z,100696.84
2023-04-03T18:57:44.085Z,100695.22
2023-04-03T19:00:16.157Z,100693.94
2023-04-03T19:02:48.005Z,100699.94
2023-04-03T19:05:20.260Z,100690.84
2023-04-03T19:07:52.099Z,100686.09
2023-04-03T19:10:22.659Z,100691.63
2023-04-03T19:12:54.022Z,100685.66
2023-04-03T19:18:12.977Z,100681.25
2023-04-03T19:20:55.311Z,100684.47
2023-04-03T19:23:35.283Z,100680.09
2023-04-03T19:26:08.466Z,100679.75
2023-04-03T19:28:40.795Z,100679.75
2023-04-03T19:31:19.314Z,100674.22
2023-04-03T19:33:50.747Z,100678.94
2023-04-03T19:36:21.623Z,100680.09
2023-04-03T19:38:52.064Z,100671.09
2023-04-03T19:41:25.327Z,100671.81
2023-04-03T19:43:57.815Z,100670.63
2023-04-03T19:46:30.587Z,100667.41
2023-04-03T19:49:01.087Z,100668.34
2023-04-03T19:51:31.348Z,100667.19
2023-04-03T19:54:01.658Z,100663.94
2023-04-03T19:56:32.102Z,100664.28
2023-04-03T19:59:02.669Z,100659.91
2023-04-03T20:01:33.324Z,100657.13
2023-04-03T20:04:04.431Z,100661.41
2023-04-03T20:06:34.899Z,100646.41
2023-04-03T20:09:05.036Z,100649.84
2023-04-03T20:11:38.171Z,100643.16
2023-04-03T20:14:09.539Z,100646.72
2023-04-03T20:16:40.506Z,100642.34
2023-04-03T20:19:12.030Z,100636.00
2023-04-03T20:21:42.758Z,100639.06
2023-04-03T20:24:14.386Z,100621.03
2023-04-03T20:26:49.164Z,100618.09
2023-04-03T20:29:20.251Z,100616.13
2023-04-03T20:31:50.914Z,100614.97
2023-04-03T20:34:21.408Z,100603.91
2023-04-03T20:39:48.887Z,100615.78
2023-04-03T20:42:19.026Z,100612.88
2023-04-03T20:44:49.199Z,100613.72
2023-04-03T20:47:29.063Z,100620.38
2023-04-03T20:49:59.236Z,100614.50
2023-04-03T20:52:29.338Z,100616.31
2023-04-03T20:55:00.168Z,100616.78
2023-04-03T20:57:30.483Z,100621.19
2023-04-03T21:00:00.697Z,100626.72
2023-04-03T21:02:30.953Z,100623.16
2023-04-03T21:05:01.294Z,100623.63
2023-04-03T21:08:08.474Z,100621.66
2023-04-03T21:11:16.278Z,100615.66
2023-04-03T21:14:24.058Z,100625.91
2023-04-03T21:16:54.437Z,100624.63
2023-04-03T21:19:24.628Z,100630.97
2023-04-03T21:21:55.171Z,100636.03
2023-04-03T21:24:30.143Z,100627.72
2023-04-03T21:27:00.995Z,100626.91
2023-04-03T21:29:32.098Z,100628.88
2023-04-03T21:32:04.157Z,100632.44
2023-04-03T21:34:34.981Z,100630.50
2023-04-03T21:37:11.837Z,100629.53
2023-04-03T21:39:42.666Z,100638.66
2023-04-03T21:42:12.972Z,100631.16
2023-04-03T21:44:44.077Z,100634.41
2023-04-03T21:47:14.865Z,100636.38
2023-04-03T21:49:45.216Z,100643.50
2023-04-03T21:52:15.729Z,100645.13
2023-04-03T21:54:46.001Z,100632.44
2023-04-03T21:57:16.928Z,100647.91
2023-04-03T21:59:47.939Z,100649.53
2023-04-03T22:02:18.647Z,100651.16
2023-04-03T22:04:50.047Z,100655.06
2023-04-03T22:07:20.558Z,100656.38
2023-04-03T22:09:51.252Z,100652.28
2023-04-03T22:12:21.620Z,100661.06
2023-04-03T22:14:52.078Z,100663.34
2023-04-03T22:17:22.360Z,100671.34
2023-04-03T22:19:52.857Z,100681.59
2023-04-03T22:22:23.158Z,100680.31
2023-04-03T22:24:54.684Z,100681.94
2023-04-03T22:27:24.795Z,100692.00
2023-04-03T22:29:55.073Z,100685.97
2023-04-03T22:32:25.445Z,100694.28
2023-04-03T22:34:55.626Z,100706.50
2023-04-03T22:37:25.952Z,100702.09
2023-04-03T22:39:56.348Z,100701.31
2023-04-03T22:42:26.668Z,100712.69
2023-04-03T22:44:57.244Z,100708.31
2023-04-03T22:47:29.000Z,100714.00
2023-04-03T22:49:59.381Z,100712.69
2023-04-03T22:52:29.849Z,100720.69
2023-04-03T22:55:06.311Z,100716.28
2023-04-03T22:59:10.466Z,100732.22
2023-04-03T23:01:41.956Z,100739.22
2023-04-03T23:04:12.504Z,100743.13
2023-04-03T23:06:42.640Z,100750.97
2023-04-03T23:09:12.948Z,100755.06
2023-04-03T23:11:43.725Z,100755.53
2023-04-03T23:14:14.151Z,100760.94
2023-04-03T23:16:44.565Z,100769.56
2023-04-03T23:19:15.406Z,100775.75
2023-04-03T23:21:45.803Z,100775.28
2023-04-03T23:24:16.202Z,100772.31
2023-04-03T23:26:46.583Z,100769.56
2023-04-03T23:29:16.874Z,100785.34
2023-04-03T23:31:47.250Z,100785.19
2023-04-03T23:34:17.866Z,100792.03
2023-04-03T23:36:48.228Z,100792.69
2023-04-03T23:39:22.192Z,100786.34
2023-04-03T23:41:52.682Z,100795.44
2023-04-03T23:44:23.938Z,100799.00
2023-04-03T23:46:53.938Z,100802.28
2023-04-03T23:49:24.382Z,100805.88
2023-04-03T23:51:54.683Z,100812.69
2023-04-03T23:54:26.180Z,100816.94
2023-04-03T23:56:56.399Z,100819.34
2023-04-03T23:59:26.622Z,100827.66
